Time;durP1;ratioP1;P1;durP2;ratioP2;P2;SDS_P1;SDS_P2;PMS_P1;PMS_P2;Temp;Humidity;BMP_temperature;BMP_pressure;BME280_temperature;BME280_humidity;BME280_pressure;Samples;Min_cycle;Max_cycle;Signal;HPM_P1;HPM_P2
2024/04/07 00:01:51;;;;;;;1999.90;999.90;;;15.50;99.90;;;;;;5034933;28;20105;-66
2024/04/07 00:04:17;;;;;;;1999.90;999.90;;;15.50;99.90;;;;;;5034843;28;20112;-70
2024/04/07 00:06:43;;;;;;;1999.90;999.90;;;15.50;99.90;;;;;;5034697;28;20103;-65
2024/04/07 00:09:08;;;;;;;1999.90;999.90;;;15.50;99.90;;;;;;5034418;28;20025;-66
2024/04/07 00:11:34;;;;;;;1999.90;999.90;;;15.60;99.90;;;;;;5035123;28;20033;-70
2024/04/07 00:13:59;;;;;;;1999.90;999.90;;;15.60;99.90;;;;;;5035026;28;20030;-66
2024/04/07 00:16:25;;;;;;;1999.90;999.90;;;15.60;99.90;;;;;;5034366;28;20448;-66
2024/04/07 00:18:51;;;;;;;1999.90;999.90;;;15.60;99.90;;;;;;5034360;28;20045;-66
2024/04/07 00:21:16;;;;;;;1999.90;999.90;;;15.70;99.90;;;;;;5034516;28;20112;-70
2024/04/07 00:23:42;;;;;;;1999.90;999.90;;;15.70;99.90;;;;;;5029104;28;20022;-70
2024/04/07 00:26:08;;;;;;;1999.90;999.90;;;15.70;99.90;;;;;;5034363;28;20048;-66
2024/04/07 00:28:34;;;;;;;1999.90;999.90;;;15.70;99.90;;;;;;5034336;28;20022;-70
2024/04/07 00:31:04;;;;;;;1999.90;999.90;;;15.70;99.90;;;;;;5034170;28;20030;-66
2024/04/07 00:33:29;;;;;;;1999.90;999.90;;;15.70;99.90;;;;;;5034043;28;20072;-66
2024/04/07 00:36:00;;;;;;;1999.90;999.90;;;15.80;99.90;;;;;;5033310;28;20469;-70
2024/04/07 00:38:26;;;;;;;1999.90;999.90;;;15.80;99.90;;;;;;5034167;28;20531;-70
2024/04/07 00:40:53;;;;;;;1999.90;999.90;;;15.90;99.90;;;;;;5034399;28;20064;-66
2024/04/07 00:43:20;;;;;;;1999.90;999.90;;;15.90;99.90;;;;;;5034380;28;20556;-66
2024/04/07 00:45:45;;;;;;;1999.90;999.90;;;15.90;99.90;;;;;;5033961;28;20088;-66
2024/04/07 00:48:11;;;;;;;1999.90;999.90;;;15.90;99.90;;;;;;5034107;28;20029;-66
2024/04/07 00:50:37;;;;;;;1999.90;999.90;;;15.90;99.90;;;;;;5033895;28;20033;-70
2024/04/07 00:53:03;;;;;;;1999.90;999.90;;;16.00;99.90;;;;;;5033963;28;20061;-66
2024/04/07 00:55:29;;;;;;;1999.90;999.90;;;16.00;99.90;;;;;;5033873;28;20024;-66
2024/04/07 00:57:56;;;;;;;1999.90;999.90;;;16.00;99.90;;;;;;5033844;28;20032;-70
2024/04/07 01:00:22;;;;;;;1999.90;999.90;;;16.10;99.90;;;;;;5033071;28;20022;-66
2024/04/07 01:02:47;;;;;;;1999.90;999.90;;;16.10;99.90;;;;;;5033842;28;20033;-70
2024/04/07 01:05:13;;;;;;;1999.90;999.90;;;16.20;99.90;;;;;;5033787;28;20033;-65
2024/04/07 01:07:39;;;;;;;1999.90;999.90;;;16.20;99.90;;;;;;5033481;28;20021;-69
2024/04/07 01:10:07;;;;;;;1999.90;999.90;;;16.20;99.90;;;;;;5033396;28;20048;-65
2024/04/07 01:12:33;;;;;;;1999.90;999.90;;;16.30;99.90;;;;;;5033533;28;20075;-66
2024/04/07 01:14:59;;;;;;;1999.90;999.90;;;16.30;99.90;;;;;;5033699;28;20025;-70
2024/04/07 01:17:25;;;;;;;1999.90;999.90;;;16.40;99.90;;;;;;5033565;28;20028;-66
2024/04/07 01:19:51;;;;;;;1999.90;999.90;;;16.40;99.90;;;;;;5033442;28;20050;-65
2024/04/07 01:22:17;;;;;;;1999.90;999.90;;;16.50;99.90;;;;;;5033242;28;20055;-65
2024/04/07 01:24:42;;;;;;;1999.90;999.90;;;16.50;99.90;;;;;;5032955;28;20481;-65
2024/04/07 01:27:08;;;;;;;1999.90;999.90;;;16.60;99.90;;;;;;5033204;28;20038;-69
2024/04/07 01:29:33;;;;;;;1999.90;999.90;;;16.70;99.90;;;;;;5033300;28;20029;-69
2024/04/07 01:31:59;;;;;;;1999.90;999.90;;;16.70;99.90;;;;;;5032971;28;20434;-65
2024/04/07 01:34:25;;;;;;;1999.90;999.90;;;16.70;99.90;;;;;;5033064;28;20033;-65
2024/04/07 01:36:50;;;;;;;1999.90;999.90;;;16.80;99.90;;;;;;5033444;28;20029;-65
2024/04/07 01:39:16;;;;;;;1999.90;999.90;;;16.90;99.90;;;;;;5032993;28;20389;-69
2024/04/07 01:41:42;;;;;;;1999.90;999.90;;;16.90;99.90;;;;;;5033142;28;20029;-69
2024/04/07 01:44:07;;;;;;;1999.90;999.90;;;17.00;99.90;;;;;;5033214;28;20091;-65
2024/04/07 01:46:33;;;;;;;1999.90;999.90;;;17.00;99.90;;;;;;5032486;28;20021;-66
2024/04/07 01:48:59;;;;;;;1999.90;999.90;;;17.00;99.90;;;;;;5033219;28;20029;-69
2024/04/07 01:51:24;;;;;;;1999.90;999.90;;;17.10;99.90;;;;;;5033030;28;20076;-65
2024/04/07 01:53:50;;;;;;;1999.90;999.90;;;17.10;99.90;;;;;;5032859;28;20021;-65
2024/04/07 01:56:16;;;;;;;1999.90;999.90;;;17.10;99.90;;;;;;5032770;28;20030;-70
2024/04/07 01:58:41;;;;;;;1999.90;999.90;;;17.20;99.90;;;;;;5032681;28;20025;-69
2024/04/07 02:01:07;;;;;;;1999.90;999.90;;;17.20;99.90;;;;;;5032708;28;20370;-65
2024/04/07 02:03:33;;;;;;;1999.90;999.90;;;17.30;99.90;;;;;;5033181;28;20025;-65
2024/04/07 02:06:00;;;;;;;1999.90;999.90;;;17.30;99.90;;;;;;5032478;28;20033;-69
2024/04/07 02:08:26;;;;;;;1999.90;999.90;;;17.40;99.90;;;;;;5032086;28;20025;-69
2024/04/07 02:10:52;;;;;;;1999.90;999.90;;;17.40;99.90;;;;;;5032477;28;20450;-69
2024/04/07 02:13:18;;;;;;;1999.90;999.90;;;17.40;99.90;;;;;;5033026;28;20121;-66
2024/04/07 02:15:44;;;;;;;1999.90;999.90;;;17.50;99.90;;;;;;5032600;28;20095;-65
2024/04/07 02:18:10;;;;;;;1999.90;999.90;;;17.60;99.90;;;;;;5032564;28;20049;-70
2024/04/07 02:20:36;;;;;;;1999.90;999.90;;;17.60;99.90;;;;;;5032305;28;20025;-70
2024/04/07 02:23:03;;;;;;;1999.90;999.90;;;17.60;99.90;;;;;;5032261;28;20369;-66
2024/04/07 02:25:29;;;;;;;1999.90;999.90;;;17.60;99.90;;;;;;5032534;28;20108;-66
2024/04/07 02:27:55;;;;;;;1999.90;999.90;;;17.60;99.90;;;;;;5032928;28;20456;-66
2024/04/07 02:30:20;;;;;;;1999.90;999.90;;;17.70;99.90;;;;;;5032572;28;20036;-66
2024/04/07 02:32:47;;;;;;;1999.90;999.90;;;17.70;99.90;;;;;;5032091;28;20443;-69
2024/04/07 02:35:13;;;;;;;1999.90;999.90;;;17.70;99.90;;;;;;5031788;28;20064;-66
2024/04/07 02:37:39;;;;;;;1999.90;999.90;;;17.70;99.90;;;;;;5032434;28;20017;-66
2024/04/07 02:40:08;;;;;;;1999.90;999.90;;;17.70;99.90;;;;;;5032740;28;20108;-66
2024/04/07 02:42:34;;;;;;;1999.90;999.90;;;17.70;99.90;;;;;;5032538;28;20033;-66
2024/04/07 02:50:27;;;;;;;1999.90;999.90;;;17.70;99.90;;;;;;5032207;28;20084;-70
2024/04/07 02:52:53;;;;;;;1999.90;999.90;;;17.60;99.90;;;;;;5032190;28;20440;-66
2024/04/07 02:55:19;;;;;;;1999.90;999.90;;;17.60;99.90;;;;;;5032344;28;20033;-66
2024/04/07 02:57:44;;;;;;;1999.90;999.90;;;17.60;99.90;;;;;;5032364;28;20056;-71
2024/04/07 03:00:16;;;;;;;1999.90;999.90;;;17.70;99.90;;;;;;5036090;28;20029;-71
2024/04/07 03:02:43;;;;;;;1999.90;999.90;;;17.60;99.90;;;;;;5035793;28;20029;-66
2024/04/07 03:05:08;;;;;;;1999.90;999.90;;;17.60;99.90;;;;;;5036068;28;20096;-67
2024/04/07 03:07:37;;;;;;;1999.90;999.90;;;17.60;99.90;;;;;;5035837;28;20021;-66
2024/04/07 03:10:04;;;;;;;1999.90;999.90;;;17.60;99.90;;;;;;5035936;28;20056;-71
2024/04/07 03:12:30;;;;;;;1999.90;999.90;;;17.60;99.90;;;;;;5035778;28;20377;-71
2024/04/07 03:14:57;;;;;;;1999.90;999.90;;;17.60;99.90;;;;;;5036293;28;20072;-66
2024/04/07 03:17:22;;;;;;;1999.90;999.90;;;17.50;99.90;;;;;;5035717;28;20025;-66
2024/04/07 03:19:48;;;;;;;1999.90;999.90;;;17.50;99.90;;;;;;5035587;28;20045;-67
2024/04/07 03:22:14;;;;;;;1999.90;999.90;;;17.50;99.90;;;;;;5035163;28;20476;-66
2024/04/07 03:24:40;;;;;;;1999.90;999.90;;;17.50;99.90;;;;;;5035182;28;20040;-71
2024/04/07 03:27:07;;;;;;;1999.90;999.90;;;17.50;99.90;;;;;;5035552;28;20520;-71
2024/04/07 03:29:32;;;;;;;1999.90;999.90;;;17.40;99.90;;;;;;5035452;28;20071;-66
2024/04/07 03:31:58;;;;;;;1999.90;999.90;;;17.40;99.90;;;;;;5035428;28;20029;-66
2024/04/07 03:34:24;;;;;;;1999.90;999.90;;;17.40;99.90;;;;;;5035059;28;20034;-71
2024/04/07 03:36:50;;;;;;;1999.90;999.90;;;17.40;99.90;;;;;;5035461;28;20053;-66
2024/04/07 03:39:16;;;;;;;1999.90;999.90;;;17.40;99.90;;;;;;5035209;28;20029;-71
2024/04/07 03:41:41;;;;;;;1999.90;999.90;;;17.40;99.90;;;;;;5035312;28;20021;-66
2024/04/07 03:44:08;;;;;;;1999.90;999.90;;;17.40;99.90;;;;;;5035491;28;20040;-66
2024/04/07 03:46:34;;;;;;;1999.90;999.90;;;17.30;99.90;;;;;;5035005;28;20049;-67
2024/04/07 03:49:00;;;;;;;1999.90;999.90;;;17.30;99.90;;;;;;5035617;28;20036;-66
2024/04/07 03:51:25;;;;;;;1999.90;999.90;;;17.30;99.90;;;;;;5035135;28;20029;-70
2024/04/07 03:53:51;;;;;;;1999.90;999.90;;;17.30;99.90;;;;;;5034961;28;20099;-67
2024/04/07 03:56:16;;;;;;;1999.90;999.90;;;17.30;99.90;;;;;;5035153;28;20030;-67
2024/04/07 03:58:42;;;;;;;1999.90;999.90;;;17.30;99.90;;;;;;5034071;28;20480;-66
2024/04/07 04:01:08;;;;;;;1999.90;999.90;;;17.30;99.90;;;;;;5034984;28;20157;-66
2024/04/07 04:03:33;;;;;;;1999.90;999.90;;;17.30;99.90;;;;;;5034875;28;20029;-71
2024/04/07 04:05:59;;;;;;;1999.90;999.90;;;17.20;99.90;;;;;;5034904;28;20028;-70
2024/04/07 04:08:25;;;;;;;1999.90;999.90;;;17.10;99.90;;;;;;5034349;28;20039;-67
2024/04/07 04:10:51;;;;;;;1999.90;999.90;;;17.10;99.90;;;;;;5034443;28;20025;-70
2024/04/07 04:13:16;;;;;;;1999.90;999.90;;;17.10;99.90;;;;;;5034946;28;20473;-66
2024/04/07 04:15:43;;;;;;;1999.90;999.90;;;17.00;99.90;;;;;;5034487;28;20052;-70
2024/04/07 04:18:10;;;;;;;1999.90;999.90;;;17.00;99.90;;;;;;5034549;28;20077;-70
2024/04/07 04:20:39;;;;;;;1999.90;999.90;;;16.90;99.90;;;;;;5034573;28;20038;-70
2024/04/07 04:23:05;;;;;;;1999.90;999.90;;;16.90;99.90;;;;;;5034363;28;20025;-66
2024/04/07 04:25:31;;;;;;;1999.90;999.90;;;16.80;99.90;;;;;;5034550;28;20034;-66
2024/04/07 04:27:56;;;;;;;1999.90;999.90;;;16.80;99.90;;;;;;5034479;28;20052;-70
2024/04/07 04:30:22;;;;;;;1999.90;999.90;;;16.70;99.90;;;;;;5034448;28;20566;-70
2024/04/07 04:32:53;;;;;;;1999.90;999.90;;;16.70;99.90;;;;;;5033962;28;20123;-70
2024/04/07 04:35:19;;;;;;;1999.90;999.90;;;16.60;99.90;;;;;;5034073;28;20500;-66
2024/04/07 04:37:45;;;;;;;1999.90;999.90;;;16.60;99.90;;;;;;5034607;28;20021;-67
2024/04/07 04:40:11;;;;;;;1999.90;999.90;;;16.50;99.90;;;;;;5034327;28;20030;-66
2024/04/07 04:42:40;;;;;;;1999.90;999.90;;;16.40;99.90;;;;;;5034110;28;20028;-70
2024/04/07 04:45:06;;;;;;;1999.90;999.90;;;16.30;99.90;;;;;;5034365;28;20502;-70
2024/04/07 04:47:32;;;;;;;1999.90;999.90;;;16.30;99.90;;;;;;5034115;28;20392;-70
2024/04/07 04:49:58;;;;;;;1999.90;999.90;;;16.20;99.90;;;;;;5034234;28;20017;-66
2024/04/07 04:52:24;;;;;;;1999.90;999.90;;;16.20;99.90;;;;;;5034044;28;20459;-70
2024/04/07 04:54:49;;;;;;;1999.90;999.90;;;16.20;99.90;;;;;;5033539;28;20037;-66
2024/04/07 04:57:15;;;;;;;1999.90;999.90;;;16.10;99.90;;;;;;5033915;28;20025;-66
2024/04/07 04:59:41;;;;;;;1999.90;999.90;;;16.00;99.90;;;;;;5033848;28;20029;-66
2024/04/07 05:02:06;;;;;;;1999.90;999.90;;;16.00;99.90;;;;;;5034069;28;20102;-66
2024/04/07 05:04:32;;;;;;;1999.90;999.90;;;16.00;99.90;;;;;;5033710;28;20033;-66
2024/04/07 05:06:58;;;;;;;1999.90;999.90;;;16.00;99.90;;;;;;5033676;28;20053;-70
2024/04/07 05:09:23;;;;;;;1999.90;999.90;;;15.90;99.90;;;;;;5033417;28;20112;-67
2024/04/07 05:11:49;;;;;;;1999.90;999.90;;;15.90;99.90;;;;;;5034002;28;20067;-70
2024/04/07 05:14:14;;;;;;;1999.90;999.90;;;15.80;99.90;;;;;;5033694;28;20041;-66
2024/04/07 05:16:40;;;;;;;1999.90;999.90;;;15.80;99.90;;;;;;5033288;28;20026;-66
2024/04/07 05:19:05;;;;;;;1999.90;999.90;;;15.70;99.90;;;;;;5033498;28;20408;-66
2024/04/07 05:21:32;;;;;;;1999.90;999.90;;;15.70;99.90;;;;;;5032538;28;20056;-66
2024/04/07 05:23:57;;;;;;;1999.90;999.90;;;15.60;99.90;;;;;;5032151;28;20029;-70
2024/04/07 05:26:23;;;;;;;1999.90;999.90;;;15.60;99.90;;;;;;5033277;28;20034;-66
2024/04/07 05:28:49;;;;;;;1999.90;999.90;;;15.60;99.90;;;;;;5033142;28;20500;-66
2024/04/07 05:31:15;;;;;;;1999.90;999.90;;;15.60;99.90;;;;;;5033343;28;20484;-66
2024/04/07 05:33:42;;;;;;;1999.90;999.90;;;15.60;99.90;;;;;;5032906;28;20029;-71
2024/04/07 05:36:08;;;;;;;1999.90;999.90;;;15.60;99.90;;;;;;5033068;28;20602;-71
2024/04/07 05:38:34;;;;;;;1999.90;999.90;;;15.50;99.90;;;;;;5032167;28;20096;-71
2024/04/07 05:41:00;;;;;;;1999.90;999.90;;;15.50;99.90;;;;;;5033240;28;20017;-71
2024/04/07 05:43:27;;;;;;;1999.90;999.90;;;15.50;99.90;;;;;;5033075;28;20512;-66
2024/04/07 05:45:52;;;;;;;1999.90;999.90;;;15.40;99.90;;;;;;5033126;28;20117;-70
2024/04/07 05:48:20;;;;;;;1999.90;999.90;;;15.40;99.90;;;;;;5033074;28;20065;-71
2024/04/07 05:50:46;;;;;;;1999.90;999.90;;;15.30;99.90;;;;;;5032832;28;20033;-70
2024/04/07 05:53:12;;;;;;;1999.90;999.90;;;15.30;99.90;;;;;;5033097;28;20365;-66
2024/04/07 05:55:37;;;;;;;1999.90;999.90;;;15.20;99.90;;;;;;5032709;28;20053;-66
2024/04/07 05:58:03;;;;;;;1999.90;999.90;;;15.20;99.90;;;;;;5033013;28;20033;-66
2024/04/07 06:00:34;;;;;;;1999.90;999.90;;;15.10;99.90;;;;;;5032811;28;20397;-70
2024/04/07 06:03:03;;;;;;;1999.90;999.90;;;15.00;99.90;;;;;;5032861;28;20109;-70
2024/04/07 06:05:30;;;;;;;1999.90;999.90;;;15.00;99.90;;;;;;5032299;28;20435;-66
2024/04/07 06:07:55;;;;;;;1999.90;999.90;;;15.00;99.90;;;;;;5032479;28;20037;-66
2024/04/07 06:10:21;;;;;;;1999.90;999.90;;;14.90;99.90;;;;;;5032495;28;20082;-66
2024/04/07 06:12:47;;;;;;;1999.90;999.90;;;15.00;99.90;;;;;;5032850;28;20025;-71
2024/04/07 06:15:13;;;;;;;1999.90;999.90;;;14.90;99.90;;;;;;5032570;28;20481;-71
2024/04/07 06:17:38;;;;;;;1999.90;999.90;;;15.00;99.90;;;;;;5032750;28;20022;-66
2024/04/07 06:20:04;;;;;;;1999.90;999.90;;;14.90;99.90;;;;;;5032477;28;20045;-66
2024/04/07 06:22:30;;;;;;;1999.90;999.90;;;15.00;99.90;;;;;;5032202;28;20025;-67
2024/04/07 06:24:59;;;;;;;1999.90;999.90;;;15.00;99.90;;;;;;5032355;28;20434;-71
2024/04/07 06:27:24;;;;;;;1999.90;999.90;;;15.00;99.90;;;;;;5033139;28;20033;-71
2024/04/07 06:29:50;;;;;;;1999.90;999.90;;;15.10;99.90;;;;;;5032477;28;20087;-66
2024/04/07 06:32:16;;;;;;;1999.90;999.90;;;15.10;99.90;;;;;;5033228;28;20087;-66
2024/04/07 06:34:41;;;;;;;1999.90;999.90;;;15.20;99.90;;;;;;5036286;28;20100;-71
2024/04/07 06:37:07;;;;;;;1999.90;999.90;;;15.20;99.90;;;;;;5036648;28;20033;-67
2024/04/07 06:39:32;;;;;;;1999.90;999.90;;;15.20;99.90;;;;;;5036485;28;20083;-70
2024/04/07 06:41:58;;;;;;;1999.90;999.90;;;15.20;99.90;;;;;;5036517;28;20022;-70
2024/04/07 06:44:24;;;;;;;1999.90;999.90;;;15.20;99.90;;;;;;5036379;28;20025;-70
2024/04/07 06:46:50;;;;;;;1999.90;999.90;;;15.20;99.90;;;;;;5036152;28;20053;-71
2024/04/07 06:49:16;;;;;;;1999.90;999.90;;;15.30;99.90;;;;;;5036322;28;20056;-66
2024/04/07 06:51:42;;;;;;;1999.90;999.90;;;15.40;99.90;;;;;;5036528;28;20021;-66
2024/04/07 06:54:08;;;;;;;1999.90;999.90;;;15.40;99.90;;;;;;5036094;28;20029;-66
2024/04/07 06:56:33;;;;;;;1999.90;999.90;;;15.50;99.90;;;;;;5035787;28;20033;-70
2024/04/07 06:58:59;;;;;;;1999.90;999.90;;;15.60;99.90;;;;;;5035504;28;20068;-70
2024/04/07 07:01:25;;;;;;;1999.90;999.90;;;15.60;99.90;;;;;;5036113;28;20033;-66
2024/04/07 07:03:50;;;;;;;1999.90;999.90;;;15.60;99.90;;;;;;5035813;28;20532;-67
2024/04/07 07:06:17;;;;;;;1999.90;999.90;;;15.60;99.90;;;;;;5036074;28;20025;-70
2024/04/07 07:08:43;;;;;;;1999.90;999.90;;;15.60;99.90;;;;;;5035338;28;20036;-70
2024/04/07 07:11:10;;;;;;;1999.90;999.90;;;15.60;99.90;;;;;;5035978;28;20411;-66
2024/04/07 07:13:44;;;;;;;1999.90;999.90;;;15.60;99.90;;;;;;5036160;28;20022;-70
2024/04/07 07:16:10;;;;;;;1999.90;999.90;;;15.60;99.90;;;;;;5035789;28;20037;-66
2024/04/07 07:18:36;;;;;;;1999.90;999.90;;;15.70;99.90;;;;;;5035441;28;20121;-66
2024/04/07 07:21:03;;;;;;;1999.90;999.90;;;15.70;99.90;;;;;;5035872;28;20037;-70
2024/04/07 07:23:30;;;;;;;1999.90;999.90;;;15.80;99.90;;;;;;5035541;28;20484;-66
2024/04/07 07:25:55;;;;;;;1999.90;999.90;;;15.70;99.90;;;;;;5035582;28;20479;-70
2024/04/07 07:28:21;;;;;;;1999.90;999.90;;;15.70;99.90;;;;;;5035888;28;20064;-66
2024/04/07 07:30:47;;;;;;;1999.90;999.90;;;15.80;99.90;;;;;;5035290;28;20389;-70
2024/04/07 07:33:14;;;;;;;1999.90;999.90;;;15.90;99.90;;;;;;5035453;28;20535;-66
2024/04/07 07:35:41;;;;;;;1999.90;999.90;;;16.10;99.90;;;;;;5035441;28;20017;-66
2024/04/07 07:38:06;;;;;;;1999.90;999.90;;;16.20;99.90;;;;;;5035750;28;20026;-66
2024/04/07 07:40:32;;;;;;;1999.90;999.90;;;16.30;99.90;;;;;;5035430;28;20392;-67
2024/04/07 07:42:57;;;;;;;1999.90;999.90;;;16.40;99.90;;;;;;5035393;28;20025;-70
2024/04/07 07:45:23;;;;;;;1999.90;999.90;;;16.50;99.90;;;;;;5034736;28;20033;-71
2024/04/07 07:47:52;;;;;;;1999.90;999.90;;;16.60;99.90;;;;;;5035525;28;20477;-70
2024/04/07 07:50:18;;;;;;;1999.90;999.90;;;16.70;99.90;;;;;;5035484;28;20030;-67
2024/04/07 07:52:45;;;;;;;1999.90;999.90;;;16.80;99.90;;;;;;5035060;28;20161;-67
2024/04/07 07:55:11;;;;;;;1999.90;999.90;;;17.20;99.90;;;;;;5035089;28;20022;-67
2024/04/07 07:57:36;;;;;;;1999.90;999.90;;;17.80;99.90;;;;;;5035007;28;20096;-67
2024/04/07 08:00:05;;;;;;;1999.90;999.90;;;18.80;99.90;;;;;;5035032;28;20026;-67
2024/04/07 08:02:33;;;;;;;1999.90;999.90;;;19.70;99.90;;;;;;5035106;28;20028;-71
2024/04/07 08:04:59;;;;;;;1999.90;999.90;;;20.70;99.90;;;;;;5034956;28;20035;-68
2024/04/07 08:07:25;;;;;;;1999.90;999.90;;;21.40;99.90;;;;;;5034702;28;20026;-67
2024/04/07 08:09:50;;;;;;;1999.90;999.90;;;20.70;99.90;;;;;;5034769;28;20079;-72
2024/04/07 08:12:16;;;;;;;1999.90;999.90;;;20.00;99.90;;;;;;5034758;28;20029;-72
2024/04/07 08:14:41;;;;;;;1999.90;999.90;;;19.30;99.90;;;;;;5034518;28;20039;-67
2024/04/07 08:17:08;;;;;;;1999.90;999.90;;;18.80;99.90;;;;;;5034781;28;20022;-67
2024/04/07 08:19:34;;;;;;;1999.90;999.90;;;18.30;99.90;;;;;;5034438;28;20049;-71
2024/04/07 08:21:59;;;;;;;1999.90;999.90;;;17.90;99.90;;;;;;5034443;28;20022;-67
2024/04/07 08:24:25;;;;;;;1999.90;999.90;;;17.60;99.90;;;;;;5034881;28;20025;-71
2024/04/07 08:26:51;;;;;;;1999.90;999.90;;;17.30;99.90;;;;;;5034219;28;20035;-70
2024/04/07 08:29:18;;;;;;;1999.90;999.90;;;17.10;99.90;;;;;;5034684;28;20224;-67
2024/04/07 08:31:43;;;;;;;1999.90;999.90;;;17.00;99.90;;;;;;5034527;28;20021;-67
2024/04/07 08:34:09;;;;;;;1999.90;999.90;;;17.00;99.90;;;;;;5034456;28;20037;-67
2024/04/07 08:36:34;;;;;;;1999.90;999.90;;;16.90;99.90;;;;;;5034020;28;20037;-71
2024/04/07 08:39:00;;;;;;;1999.90;999.90;;;16.90;99.90;;;;;;5033854;28;20156;-67
2024/04/07 08:41:26;;;;;;;1999.90;999.90;;;16.70;99.90;;;;;;5034189;28;20044;-67
2024/04/07 08:43:53;;;;;;;1999.90;999.90;;;16.70;99.90;;;;;;5034287;28;20022;-70
2024/04/07 08:46:20;;;;;;;1999.90;999.90;;;16.60;99.90;;;;;;5034097;28;20523;-67
2024/04/07 08:48:50;;;;;;;1999.90;999.90;;;16.60;99.90;;;;;;5034100;28;20091;-70
2024/04/07 08:51:16;;;;;;;1999.90;999.90;;;16.70;99.90;;;;;;5034482;28;20036;-71
2024/04/07 08:53:43;;;;;;;1999.90;999.90;;;16.70;99.90;;;;;;5034031;28;20033;-71
2024/04/07 08:56:11;;;;;;;1999.90;999.90;;;16.70;99.90;;;;;;5032863;28;20077;-70
2024/04/07 08:58:38;;;;;;;1999.90;999.90;;;16.60;99.90;;;;;;5033985;28;20143;-67
2024/04/07 09:01:04;;;;;;;1999.90;999.90;;;16.70;99.90;;;;;;5033841;28;20497;-70
2024/04/07 09:03:31;;;;;;;1999.90;999.90;;;16.80;99.90;;;;;;5033752;28;20377;-71
2024/04/07 09:05:57;;;;;;;1999.90;999.90;;;17.00;99.90;;;;;;5034102;28;20025;-67
2024/04/07 09:08:23;;;;;;;1999.90;999.90;;;17.40;99.90;;;;;;5033428;28;20033;-68
2024/04/07 09:10:49;;;;;;;1999.90;999.90;;;17.70;99.90;;;;;;5033501;28;20037;-67
2024/04/07 09:13:18;;;;;;;1999.90;999.90;;;17.90;99.90;;;;;;5033897;28;20026;-67
2024/04/07 09:15:44;;;;;;;1999.90;999.90;;;18.00;99.90;;;;;;5033722;28;20030;-71
2024/04/07 09:18:13;;;;;;;1999.90;999.90;;;18.10;99.90;;;;;;5033589;28;20044;-71
2024/04/07 09:20:39;;;;;;;1999.90;999.90;;;18.20;99.90;;;;;;5033363;28;20118;-71
2024/04/07 09:23:04;;;;;;;1999.90;999.90;;;18.50;99.90;;;;;;5033215;28;20024;-70
2024/04/07 09:25:31;;;;;;;1999.90;999.90;;;19.70;99.90;;;;;;5032844;28;20400;-67
2024/04/07 09:27:58;;;;;;;1999.90;999.90;;;20.50;99.90;;;;;;5033619;28;20028;-71
2024/04/07 09:30:24;;;;;;;1999.90;999.90;;;21.80;99.90;;;;;;5033553;28;20033;-71
2024/04/07 09:32:50;;;;;;;1999.90;999.90;;;21.80;99.90;;;;;;5031646;28;20156;-67
2024/04/07 09:35:15;;;;;;;1999.90;999.90;;;21.20;99.90;;;;;;5032843;28;20041;-70
2024/04/07 09:37:42;;;;;;;1999.90;999.90;;;21.30;99.90;;;;;;5033140;28;20388;-67
2024/04/07 09:40:08;;;;;;;1999.90;999.90;;;21.00;99.90;;;;;;5033025;28;20076;-70
2024/04/07 09:42:37;;;;;;;1999.90;999.90;;;22.20;99.90;;;;;;5033127;28;20136;-71
2024/04/07 09:45:06;;;;;;;1999.90;999.90;;;23.40;99.90;;;;;;5033135;28;20034;-68
2024/04/07 09:47:38;;;;;;;1999.90;999.90;;;23.40;99.90;;;;;;5033297;28;20052;-68
2024/04/07 09:50:18;;;;;;;1999.90;999.90;;;22.50;99.90;;;;;;5033046;28;20491;-67
2024/04/07 09:52:51;;;;;;;1999.90;999.90;;;22.00;99.90;;;;;;5032660;28;20033;-67
2024/04/07 09:55:17;;;;;;;1999.90;999.90;;;21.40;99.90;;;;;;5033084;28;20029;-70
2024/04/07 09:57:43;;;;;;;1999.90;999.90;;;20.50;99.90;;;;;;5032969;28;20045;-71
2024/04/07 10:00:12;;;;;;;1999.90;999.90;;;19.70;99.90;;;;;;5032239;28;20059;-71
2024/04/07 10:02:39;;;;;;;1999.90;999.90;;;19.00;99.90;;;;;;5032638;28;20026;-67
2024/04/07 10:05:07;;;;;;;1999.90;999.90;;;18.70;99.90;;;;;;5032705;28;20026;-67
2024/04/07 10:07:35;;;;;;;1999.90;999.90;;;18.70;99.90;;;;;;5032476;28;20385;-70
2024/04/07 10:10:02;;;;;;;1999.90;999.90;;;18.60;99.90;;;;;;5032640;28;20024;-67
2024/04/07 10:12:31;;;;;;;1999.90;999.90;;;18.70;99.90;;;;;;5032623;28;20026;-67
2024/04/07 10:15:00;;;;;;;1999.90;999.90;;;18.80;99.90;;;;;;5032902;28;20480;-67
2024/04/07 10:17:30;;;;;;;1999.90;999.90;;;19.10;99.90;;;;;;5032712;28;20411;-68
2024/04/07 10:19:57;;;;;;;1999.90;999.90;;;19.30;99.90;;;;;;5032391;28;20057;-71
2024/04/07 10:22:24;;;;;;;1999.90;999.90;;;19.60;99.90;;;;;;5032512;28;20025;-67
2024/04/07 10:24:51;;;;;;;1999.90;999.90;;;19.80;99.90;;;;;;5032446;28;20037;-71
2024/04/07 10:27:23;;;;;;;1999.90;999.90;;;19.60;99.90;;;;;;5032608;28;20496;-67
2024/04/07 10:29:59;;;;;;;1999.90;999.90;;;19.20;99.90;;;;;;5032582;28;20036;-71
2024/04/07 10:32:29;;;;;;;1999.90;999.90;;;19.20;99.90;;;;;;5032477;28;20091;-71
2024/04/07 10:35:09;;;;;;;1999.90;999.90;;;19.30;99.90;;;;;;5032391;28;20029;-71
2024/04/07 10:37:39;;;;;;;1999.90;999.90;;;19.20;99.90;;;;;;5032779;28;20104;-71
2024/04/07 10:40:07;;;;;;;1999.90;999.90;;;19.30;99.90;;;;;;5032389;28;20025;-71
2024/04/07 10:42:34;;;;;;;1999.90;999.90;;;19.70;99.90;;;;;;5032226;28;20404;-67
2024/04/07 10:45:04;;;;;;;1999.90;999.90;;;19.80;99.90;;;;;;5032463;28;20029;-71
2024/04/07 10:47:30;;;;;;;1999.90;999.90;;;19.60;99.90;;;;;;5032478;28;20447;-67
2024/04/07 10:49:56;;;;;;;1999.90;999.90;;;19.40;99.90;;;;;;5032416;28;20115;-67
2024/04/07 10:52:26;;;;;;;1999.90;999.90;;;19.30;99.90;;;;;;5032358;28;20065;-71
2024/04/07 10:54:56;;;;;;;1999.90;999.90;;;19.10;99.90;;;;;;5032046;28;20033;-71
2024/04/07 10:57:22;;;;;;;1999.90;999.90;;;18.80;99.90;;;;;;5032532;28;20112;-67
2024/04/07 10:59:48;;;;;;;1999.90;999.90;;;18.50;99.90;;;;;;5031695;28;20101;-71
2024/04/07 11:02:14;;;;;;;1999.90;999.90;;;18.30;99.90;;;;;;5032767;28;20068;-71
2024/04/07 11:04:41;;;;;;;1999.90;999.90;;;18.20;99.90;;;;;;5031994;28;20072;-67
2024/04/07 11:07:07;;;;;;;1999.90;999.90;;;18.20;99.90;;;;;;5031932;28;20498;-70
2024/04/07 11:09:33;;;;;;;1999.90;999.90;;;18.20;99.90;;;;;;5032213;28;20018;-67
2024/04/07 11:12:00;;;;;;;1999.90;999.90;;;18.10;99.90;;;;;;5032626;28;20064;-67
2024/04/07 11:14:30;;;;;;;1999.90;999.90;;;17.90;99.90;;;;;;5032341;28;20025;-70
2024/04/07 11:17:00;;;;;;;1999.90;999.90;;;17.80;99.90;;;;;;5031903;28;20025;-67
2024/04/07 11:19:26;;;;;;;1999.90;999.90;;;17.70;99.90;;;;;;5032907;28;20049;-67
2024/04/07 11:21:53;;;;;;;1999.90;999.90;;;17.50;99.90;;;;;;5035787;28;20028;-67
2024/04/07 11:24:19;;;;;;;1999.90;999.90;;;17.30;99.90;;;;;;5035707;28;20018;-70
2024/04/07 11:26:47;;;;;;;1999.90;999.90;;;17.20;99.90;;;;;;5035380;28;20033;-71
2024/04/07 11:29:14;;;;;;;1999.90;999.90;;;17.00;99.90;;;;;;5035607;28;20032;-67
2024/04/07 11:31:40;;;;;;;1999.90;999.90;;;16.80;99.90;;;;;;5035762;28;20400;-67
2024/04/07 11:34:05;;;;;;;1999.90;999.90;;;16.60;99.90;;;;;;5035579;28;20036;-67
2024/04/07 11:36:31;;;;;;;1999.90;999.90;;;16.50;99.90;;;;;;5035144;28;20029;-67
2024/04/07 11:38:57;;;;;;;1999.90;999.90;;;16.40;99.90;;;;;;5035671;28;20029;-67
2024/04/07 11:41:23;;;;;;;1999.90;999.90;;;16.30;99.90;;;;;;5035545;28;20156;-67
2024/04/07 11:43:49;;;;;;;1999.90;999.90;;;16.20;99.90;;;;;;5035486;28;20053;-67
2024/04/07 11:46:15;;;;;;;1999.90;999.90;;;16.20;99.90;;;;;;5035469;28;20075;-71
2024/04/07 11:48:42;;;;;;;1999.90;999.90;;;16.10;99.90;;;;;;5035110;28;20025;-67
2024/04/07 11:51:08;;;;;;;1999.90;999.90;;;16.10;99.90;;;;;;5035336;28;20029;-71
2024/04/07 11:53:34;;;;;;;1999.90;999.90;;;16.10;99.90;;;;;;5035273;28;20022;-71
2024/04/07 11:56:00;;;;;;;1999.90;999.90;;;16.00;99.90;;;;;;5035287;28;20045;-67
2024/04/07 11:58:25;;;;;;;1999.90;999.90;;;16.00;99.90;;;;;;5035157;28;20024;-67
2024/04/07 12:00:52;;;;;;;1999.90;999.90;;;16.10;99.90;;;;;;5034906;28;20104;-67